M I D A S
Marine Information and Data Acquisition System
Tripno 1471 of the Zeeleeuw from 2008-02-21 08:08:07 to 2008-02-21 13:14:37
Back to CruiseResearch ActivitiesStationsMapUnderway DataData graphs

EquipmentUnitsComment
TimeDGPSUTC
LatitudeDGPSDM.mWGS84
LongitudeDGPSDM.mWGS84
TemperatureSBE03/SBE38deg celciusITS90
ConductivitySBE21S/mITS90
SalinitySBE21 Practical Salinity Units
ChlorophylAChelsea fluorimeterg/lCalibrated in Aceton
Missing or incorrect values are displayed as -999
Sea surface data collected by the RV Zeeleeuw from 2008-02-21 08:05:32 to 2008-02-21 13:29:38
Time Latitude Longitude Temperature Conductivity Salinity ChlorophylA
2008-02-21 08:06:37 51°13.664 2°55.956 12.6737 -999 -999 -1.657694
2008-02-21 08:07:36 51°13.663 2°55.956 12.6814 -999 -999 -1.657694
2008-02-21 08:08:34 51°13.662 2°55.955 12.6537 -999 -999 -1.657694
2008-02-21 08:09:37 51°13.676 2°55.896 12.6734 -999 -999 -1.657694
2008-02-21 08:10:37 51°13.694 2°55.804 12.7004 -999 -999 -1.657694
2008-02-21 08:11:37 51°13.703 2°55.777 12.6233 -999 -999 -1.657694
2008-02-21 08:12:37 51°13.701 2°55.753 12.7254 -999 -999 -1.657694
2008-02-21 08:13:37 51°13.712 2°55.751 12.6416 -999 -999 -1.657694
2008-02-21 08:14:37 51°13.712 2°55.74 12.8624 -999 -999 -1.657694
2008-02-21 08:15:35 51°13.807 2°55.659 12.4882 -999 -999 -1.657694
2008-02-21 08:16:34 51°13.915 2°55.576 12.6481 -999 -999 -1.657694
2008-02-21 08:17:33 51°14.008 2°55.505 12.6506 -999 -999 -1.657694
2008-02-21 08:18:37 51°14.101 2°55.434 12.7716 -999 -999 -1.657694
2008-02-21 08:19:37 51°14.229 2°55.307 12.6735 -999 -999 -1.657694
2008-02-21 08:20:35 51°14.343 2°55.106 12.6868 -999 -999 -1.657694
2008-02-21 08:21:34 51°14.448 2°54.84 12.6142 -999 -999 -1.657694
2008-02-21 08:22:33 51°14.533 2°54.54 12.8185 -999 -999 -1.657694
2008-02-21 08:23:34 51°14.476 2°54.22 12.5359 -999 -999 -1.657694
2008-02-21 08:24:34 51°14.377 2°53.919 12.5108 -999 -999 -1.657694
2008-02-21 08:25:34 51°14.291 2°53.604 12.5624 -999 -999 -1.657694
2008-02-21 08:26:34 51°14.21 2°53.284 12.6255 -999 -999 -1.657694
2008-02-21 08:27:33 51°14.125 2°52.971 12.6064 -999 -999 -1.657694
2008-02-21 08:28:33 51°14.038 2°52.653 12.5915 -999 -999 -1.657694
2008-02-21 08:29:33 51°13.935 2°52.349 12.6035 -999 -999 -1.657694
2008-02-21 08:30:33 51°13.812 2°52.063 12.6421 -999 -999 -1.657694
2008-02-21 08:31:33 51°13.7 2°51.764 12.5835 -999 -999 -1.657694
2008-02-21 08:32:33 51°13.59 2°51.465 12.6943 -999 -999 -1.657694
2008-02-21 08:33:33 51°13.48 2°51.167 12.6187 -999 -999 -1.657694
2008-02-21 08:34:33 51°13.371 2°50.868 12.6497 -999 -999 -1.657694
2008-02-21 08:35:33 51°13.261 2°50.567 12.6157 -999 -999 -1.657694
2008-02-21 08:36:33 51°13.156 2°50.259 12.6459 -999 -999 -1.657694
2008-02-21 08:37:33 51°13.048 2°49.949 12.6729 -999 -999 -1.657694
2008-02-21 08:38:33 51°12.941 2°49.637 12.6822 -999 -999 -1.657694
2008-02-21 08:39:33 51°12.835 2°49.322 12.7024 -999 -999 -1.657694
2008-02-21 08:40:33 51°12.726 2°49.009 12.674 -999 -999 -1.657694
2008-02-21 08:41:33 51°12.621 2°48.691 12.7237 -999 -999 -1.657694
2008-02-21 08:42:33 51°12.513 2°48.376 12.7632 -999 -999 -1.657694
2008-02-21 08:43:33 51°12.405 2°48.06 12.6989 -999 -999 -1.657694
2008-02-21 08:44:33 51°12.295 2°47.746 12.7509 -999 -999 -1.657694
2008-02-21 08:45:33 51°12.187 2°47.431 12.8062 -999 -999 -1.657694
2008-02-21 08:46:33 51°12.082 2°47.112 10.926 -999 -999 -1.657694
2008-02-21 08:47:33 51°12.009 2°46.771 6.0331 -999 -999 4.34258
2008-02-21 08:48:33 51°11.946 2°46.422 5.8923 -999 -999 4.780802
2008-02-21 08:49:33 51°11.885 2°46.073 5.8488 -999 -999 4.747093
2008-02-21 08:50:33 51°11.834 2°45.721 5.8499 -999 -999 5.016768
2008-02-21 08:51:33 51°11.78 2°45.371 5.8526 -999 -999 5.252734
2008-02-21 08:52:33 51°11.728 2°45.022 5.8684 -999 -999 5.556118
2008-02-21 08:53:33 51°11.677 2°44.676 5.8913 -999 -999 5.825794
2008-02-21 08:54:33 51°11.623 2°44.332 5.9341 -999 -999 6.061759
2008-02-21 08:55:33 51°11.573 2°43.988 5.9771 -999 -999 6.499982
2008-02-21 08:56:33 51°11.534 2°43.643 6.0177 -999 -999 6.803366
2008-02-21 08:57:33 51°11.488 2°43.307 6.1105 -999 -999 7.443845
2008-02-21 08:58:33 51°11.4 2°42.997 6.1922 -999 -999 8.387708
2008-02-21 08:59:33 51°11.303 2°42.688 6.2084 -999 -999 8.758512
2008-02-21 09:00:33 51°11.209 2°42.375 6.2153 -999 -999 8.724802
2008-02-21 09:01:33 51°11.113 2°42.063 6.2171 -999 -999 8.85964
2008-02-21 09:02:33 51°11.019 2°41.748 6.2218 -999 -999 8.960768
2008-02-21 09:03:33 51°10.924 2°41.433 6.2589 -999 -999 9.196734
2008-02-21 09:04:33 51°10.827 2°41.12 6.2947 -999 -999 9.500118
2008-02-21 09:05:33 51°10.731 2°40.808 6.3445 -999 -999 9.736084
2008-02-21 09:06:33 51°10.634 2°40.496 6.3643 -999 -999 10.410272
2008-02-21 09:07:33 51°10.536 2°40.183 6.3661 -999 -999 10.376563
2008-02-21 09:08:33 51°10.439 2°39.869 6.364 -999 -999 10.410272
2008-02-21 09:09:33 51°10.344 2°39.553 6.3582 -999 -999 10.275435
2008-02-21 09:10:33 51°10.246 2°39.24 6.3492 -999 -999 10.241725
2008-02-21 09:11:33 51°10.149 2°38.924 6.3492 -999 -999 10.073178
2008-02-21 09:12:33 51°10.052 2°38.608 6.3419 -999 -999 9.97205
2008-02-21 09:13:33 51°9.955 2°38.292 6.3401 -999 -999 9.904631
2008-02-21 09:14:33 51°9.862 2°37.972 6.3335 -999 -999 9.904631
2008-02-21 09:15:33 51°9.778 2°37.647 6.3217 -999 -999 9.904631
2008-02-21 09:16:33 51°9.694 2°37.322 6.3036 -999 -999 9.803503
2008-02-21 09:17:33 51°9.609 2°36.997 6.2882 -999 -999 9.702375
2008-02-21 09:18:33 51°9.524 2°36.672 6.2572 -999 -999 9.837212
2008-02-21 09:19:33 51°9.453 2°36.396 6.214 -999 -999 9.803503
2008-02-21 09:20:33 51°9.384 2°36.303 6.1961 -999 -999 10.005759
2008-02-21 09:21:33 51°9.327 2°36.355 6.2 -999 -999 9.97205
2008-02-21 09:22:33 51°9.298 2°36.451 6.2206 -999 -999 10.005759
2008-02-21 09:23:33 51°9.305 2°36.513 6.2423 -999 -999 9.803503
2008-02-21 09:24:33 51°9.313 2°36.557 6.2907 -999 -999 10.005759
2008-02-21 09:25:33 51°9.312 2°36.574 6.3339 -999 -999 9.297862
2008-02-21 09:26:33 51°9.309 2°36.59 6.3443 -999 -999 9.196734
2008-02-21 09:27:33 51°9.304 2°36.607 6.3645 -999 -999 9.163024
2008-02-21 09:28:33 51°9.299 2°36.626 6.3638 -999 -999 8.994477
2008-02-21 09:29:33 51°9.294 2°36.644 6.3667 -999 -999 9.061896
2008-02-21 09:30:33 51°9.288 2°36.662 6.3548 -999 -999 8.82593
2008-02-21 09:31:33 51°9.282 2°36.681 6.342 -999 -999 8.994477
2008-02-21 09:32:33 51°9.275 2°36.701 6.3314 -999 -999 8.792221
2008-02-21 09:33:33 51°9.271 2°36.722 6.3258 -999 -999 8.589965
2008-02-21 09:34:33 51°9.266 2°36.745 6.3195 -999 -999 8.792221
2008-02-21 09:35:33 51°9.259 2°36.767 6.3174 -999 -999 8.893349
2008-02-21 09:36:33 51°9.253 2°36.789 6.315 -999 -999 8.893349
2008-02-21 09:37:33 51°9.246 2°36.811 6.3136 -999 -999 8.893349
2008-02-21 09:38:33 51°9.24 2°36.833 6.31 -999 -999 8.82593
2008-02-21 09:39:33 51°9.235 2°36.858 6.309 -999 -999 8.82593
2008-02-21 09:40:33 51°9.228 2°36.883 6.3058 -999 -999 8.792221
2008-02-21 09:41:33 51°9.223 2°36.909 6.3082 -999 -999 8.82593
2008-02-21 09:42:33 51°9.216 2°36.937 6.3039 -999 -999 8.758512
2008-02-21 09:43:33 51°9.212 2°36.967 6.2997 -999 -999 8.488836
2008-02-21 09:44:33 51°9.209 2°36.994 6.2997 -999 -999 8.488836
2008-02-21 09:45:33 51°9.204 2°37.018 6.2977 -999 -999 8.488836
2008-02-21 09:46:33 51°9.2 2°37.036 6.2944 -999 -999 8.623674
2008-02-21 09:47:33 51°9.192 2°37.059 6.2942 -999 -999 8.488836
2008-02-21 09:48:33 51°9.187 2°37.078 6.2948 -999 -999 8.657383
2008-02-21 09:49:33 51°9.184 2°37.092 6.2943 -999 -999 8.724802
2008-02-21 09:50:37 51°9.181 2°37.107 6.2897 -999 -999 8.522546
2008-02-21 09:51:37 51°9.176 2°37.122 6.2937 -999 -999 8.623674
2008-02-21 09:52:37 51°9.172 2°37.138 6.2927 -999 -999 8.387708
2008-02-21 09:53:37 51°9.169 2°37.154 6.2884 -999 -999 8.421418
2008-02-21 09:54:37 51°9.166 2°37.172 6.2912 -999 -999 8.320289
2008-02-21 09:55:36 51°9.164 2°37.189 6.2921 -999 -999 8.28658
2008-02-21 09:56:34 51°9.138 2°37.208 6.2895 -999 -999 8.691093
2008-02-21 09:57:33 51°9.101 2°37.126 6.2787 -999 -999 8.85964
2008-02-21 09:58:33 51°9.112 2°37.102 6.277 -999 -999 8.455127
2008-02-21 09:59:33 51°9.119 2°37.114 6.2886 -999 -999 8.488836
2008-02-21 10:00:33 51°9.125 2°37.13 6.2917 -999 -999 7.780939
2008-02-21 10:01:33 51°9.129 2°37.149 6.3014 -999 -999 7.477554
2008-02-21 10:02:33 51°9.133 2°37.17 6.2919 -999 -999 7.410136
2008-02-21 10:03:33 51°9.137 2°37.191 6.2905 -999 -999 7.207879
2008-02-21 10:04:33 51°9.142 2°37.214 6.291 -999 -999 7.376426
2008-02-21 10:05:33 51°9.146 2°37.236 6.2931 -999 -999 7.207879
2008-02-21 10:06:33 51°9.151 2°37.259 6.2896 -999 -999 7.275298
2008-02-21 10:07:33 51°9.156 2°37.282 6.2892 -999 -999 7.544973
2008-02-21 10:08:33 51°9.161 2°37.305 6.2931 -999 -999 7.679811
2008-02-21 10:09:33 51°9.166 2°37.329 6.2988 -999 -999 7.342717
2008-02-21 10:10:33 51°9.171 2°37.354 6.2989 -999 -999 6.837076
2008-02-21 10:11:33 51°9.176 2°37.379 6.3064 -999 -999 7.207879
2008-02-21 10:12:33 51°9.18 2°37.404 6.3057 -999 -999 6.870785
2008-02-21 10:13:33 51°9.186 2°37.432 6.2969 -999 -999 6.803366
2008-02-21 10:14:33 51°9.19 2°37.461 6.2978 -999 -999 7.039332
2008-02-21 10:15:33 51°9.194 2°37.489 6.3024 -999 -999 7.207879
2008-02-21 10:16:33 51°9.199 2°37.518 6.3087 -999 -999 7.443845
2008-02-21 10:17:33 51°9.204 2°37.546 6.3071 -999 -999 7.74723
2008-02-21 10:18:33 51°9.208 2°37.575 6.3009 -999 -999 8.084324
2008-02-21 10:19:33 51°9.214 2°37.605 6.2986 -999 -999 8.252871
2008-02-21 10:20:33 51°9.22 2°37.635 6.2971 -999 -999 7.949486
2008-02-21 10:21:33 51°9.226 2°37.668 6.2995 -999 -999 7.882067
2008-02-21 10:22:33 51°9.231 2°37.701 6.2974 -999 -999 7.983195
2008-02-21 10:23:33 51°9.237 2°37.735 6.2994 -999 -999 8.118033
2008-02-21 10:24:33 51°9.273 2°37.748 6.2991 -999 -999 8.387708
2008-02-21 10:25:33 51°9.334 2°37.613 6.3174 -999 -999 8.353999
2008-02-21 10:26:33 51°9.294 2°37.511 6.3227 -999 -999 7.814648
2008-02-21 10:27:33 51°9.255 2°37.509 6.3163 -999 -999 8.522546
2008-02-21 10:28:33 51°9.222 2°37.529 6.314 -999 -999 8.28658
2008-02-21 10:29:33 51°9.203 2°37.559 6.3126 -999 -999 8.623674
2008-02-21 10:30:33 51°9.195 2°37.595 6.3089 -999 -999 9.028187
2008-02-21 10:31:33 51°9.191 2°37.635 6.3109 -999 -999 8.85964
2008-02-21 10:32:33 51°9.179 2°37.674 6.3081 -999 -999 8.724802
2008-02-21 10:33:33 51°9.131 2°37.683 6.299 -999 -999 8.792221
2008-02-21 10:34:33 51°9.084 2°37.637 6.2882 -999 -999 8.691093
2008-02-21 10:35:33 51°9.053 2°37.569 6.2909 -999 -999 8.657383
2008-02-21 10:36:33 51°9.041 2°37.488 6.2897 -999 -999 8.82593
2008-02-21 10:37:33 51°9.031 2°37.409 6.2949 -999 -999 8.118033
2008-02-21 10:38:33 51°9.025 2°37.332 6.299 -999 -999 8.016905
2008-02-21 10:39:33 51°9.02 2°37.255 6.3094 -999 -999 8.623674
2008-02-21 10:40:33 51°9.019 2°37.178 6.3138 -999 -999 9.061896
2008-02-21 10:41:33 51°9.017 2°37.101 6.3181 -999 -999 9.297862
2008-02-21 10:42:33 51°9.013 2°37.025 6.3217 -999 -999 9.230443
2008-02-21 10:43:33 51°9.01 2°36.948 6.326 -999 -999 9.39899
2008-02-21 10:44:33 51°9.008 2°36.872 6.3228 -999 -999 9.634956
2008-02-21 10:45:33 51°9.006 2°36.797 6.3194 -999 -999 9.500118
2008-02-21 10:46:33 51°9.004 2°36.721 6.3116 -999 -999 9.264153
2008-02-21 10:47:33 51°9.002 2°36.64 6.301 -999 -999 9.567537
2008-02-21 10:48:33 51°9 2°36.557 6.2977 -999 -999 9.702375
2008-02-21 10:49:33 51°8.999 2°36.476 6.2675 -999 -999 10.005759
2008-02-21 10:50:33 51°8.999 2°36.395 6.2412 -999 -999 10.342853
2008-02-21 10:51:33 51°8.998 2°36.314 6.2273 -999 -999 10.376563
2008-02-21 10:52:33 51°8.998 2°36.232 6.2124 -999 -999 10.612529
2008-02-21 10:53:33 51°8.998 2°36.151 6.2037 -999 -999 10.54511
2008-02-21 10:54:33 51°8.993 2°36.073 6.1968 -999 -999 10.915913
2008-02-21 10:55:33 51°8.987 2°35.995 6.1917 -999 -999 11.050751
2008-02-21 10:56:33 51°8.981 2°35.92 6.1867 -999 -999 11.151879
2008-02-21 10:57:33 51°8.976 2°35.845 6.1823 -999 -999 11.387845
2008-02-21 10:58:33 51°8.973 2°35.769 6.1812 -999 -999 11.556392
2008-02-21 10:59:33 51°8.971 2°35.693 6.1808 -999 -999 11.960905
2008-02-21 11:00:33 51°8.968 2°35.62 6.1804 -999 -999 12.163161
2008-02-21 11:01:33 51°8.966 2°35.546 6.1844 -999 -999 12.196871
2008-02-21 11:02:33 51°8.963 2°35.474 6.191 -999 -999 12.365418
2008-02-21 11:03:33 51°8.961 2°35.403 6.2048 -999 -999 12.601383
2008-02-21 11:04:33 51°8.961 2°35.331 6.2069 -999 -999 12.76993
2008-02-21 11:05:33 51°8.957 2°35.262 6.2133 -999 -999 12.837349
2008-02-21 11:06:33 51°8.948 2°35.191 6.2105 -999 -999 13.073315
2008-02-21 11:07:33 51°8.938 2°35.119 6.2117 -999 -999 13.241862
2008-02-21 11:08:33 51°8.929 2°35.047 6.2181 -999 -999 13.208153
2008-02-21 11:09:33 51°8.92 2°34.973 6.225 -999 -999 13.174443
2008-02-21 11:10:33 51°8.912 2°34.899 6.2323 -999 -999 13.578956
2008-02-21 11:11:33 51°8.903 2°34.828 6.2289 -999 -999 13.646375
2008-02-21 11:12:33 51°8.896 2°34.755 6.23 -999 -999 13.511537
2008-02-21 11:13:33 51°8.904 2°34.676 6.2298 -999 -999 14.050888
2008-02-21 11:14:33 51°8.952 2°34.631 6.2429 -999 -999 13.747503
2008-02-21 11:15:33 51°9.007 2°34.652 6.2567 -999 -999 13.511537
2008-02-21 11:16:33 51°9.06 2°34.738 6.2675 -999 -999 13.949759
2008-02-21 11:17:33 51°9.088 2°34.857 6.2823 -999 -999 14.253144
2008-02-21 11:18:33 51°9.102 2°34.948 6.2911 -999 -999 14.758785
2008-02-21 11:19:33 51°9.115 2°35.026 6.2835 -999 -999 14.050888
2008-02-21 11:20:33 51°9.129 2°35.097 6.2907 -999 -999 14.286853
2008-02-21 11:21:33 51°9.142 2°35.166 6.2868 -999 -999 14.286853
2008-02-21 11:22:33 51°9.153 2°35.236 6.2841 -999 -999 13.983469
2008-02-21 11:23:33 51°9.137 2°35.33 6.2811 -999 -999 14.286853
2008-02-21 11:24:33 51°9.095 2°35.405 6.2583 -999 -999 14.48911
2008-02-21 11:25:33 51°9.074 2°35.428 6.2379 -999 -999 14.387982
2008-02-21 11:26:33 51°9.084 2°35.43 6.2281 -999 -999 13.578956
2008-02-21 11:27:33 51°9.151 2°35.422 6.2426 -999 -999 13.781212
2008-02-21 11:28:33 51°9.242 2°35.463 6.2757 -999 -999 14.118306
2008-02-21 11:29:34 51°9.325 2°35.545 6.3108 -999 -999 14.118306
2008-02-21 11:30:33 51°9.375 2°35.673 6.3398 -999 -999 15.500392
2008-02-21 11:31:33 51°9.41 2°35.782 6.3503 -999 -999 16.073452
2008-02-21 11:32:33 51°9.442 2°35.879 6.3669 -999 -999 15.63523
2008-02-21 11:33:33 51°9.463 2°35.975 6.3684 -999 -999 16.17458
2008-02-21 11:34:33 51°9.477 2°36.064 6.3636 -999 -999 15.197007
2008-02-21 11:35:33 51°9.483 2°36.15 6.3666 -999 -999 15.60152
2008-02-21 11:36:33 51°9.479 2°36.246 6.3549 -999 -999 15.770067
2008-02-21 11:37:33 51°9.466 2°36.344 6.3287 -999 -999 15.197007
2008-02-21 11:38:33 51°9.451 2°36.444 6.3074 -999 -999 15.129589
2008-02-21 11:39:33 51°9.434 2°36.539 6.2819 -999 -999 14.725076
2008-02-21 11:40:33 51°9.415 2°36.63 6.2553 -999 -999 14.152016
2008-02-21 11:41:33 51°9.396 2°36.723 6.2306 -999 -999 14.4554
2008-02-21 11:42:33 51°9.38 2°36.823 6.2087 -999 -999 13.34299
2008-02-21 11:43:33 51°9.365 2°36.925 6.1904 -999 -999 12.76993
2008-02-21 11:44:33 51°9.355 2°37.033 6.1724 -999 -999 12.76993
2008-02-21 11:45:33 51°9.36 2°37.142 6.1662 -999 -999 12.432836
2008-02-21 11:46:33 51°9.373 2°37.245 6.1667 -999 -999 12.297999
2008-02-21 11:47:34 51°9.39 2°37.347 6.1661 -999 -999 12.163161
2008-02-21 11:48:33 51°9.411 2°37.443 6.1697 -999 -999 12.095742
2008-02-21 11:49:33 51°9.435 2°37.538 6.17 -999 -999 11.927195
2008-02-21 11:50:33 51°9.464 2°37.629 6.1716 -999 -999 11.893486
2008-02-21 11:51:33 51°9.496 2°37.719 6.1718 -999 -999 12.163161
2008-02-21 11:52:34 51°9.525 2°37.814 6.1741 -999 -999 12.095742
2008-02-21 11:53:34 51°9.555 2°37.907 6.1754 -999 -999 12.095742
2008-02-21 11:54:34 51°9.586 2°38 6.1756 -999 -999 12.062033
2008-02-21 11:55:34 51°9.617 2°38.094 6.175 -999 -999 12.163161
2008-02-21 11:56:34 51°9.645 2°38.186 6.1771 -999 -999 12.196871
2008-02-21 11:57:34 51°9.671 2°38.278 6.1767 -999 -999 12.399127
2008-02-21 11:58:34 51°9.695 2°38.369 6.1799 -999 -999 12.264289
2008-02-21 11:59:34 51°9.717 2°38.459 6.1815 -999 -999 12.196871
2008-02-21 12:00:34 51°9.738 2°38.548 6.1838 -999 -999 12.028324
2008-02-21 12:01:34 51°9.758 2°38.637 6.1826 -999 -999 12.062033
2008-02-21 12:02:34 51°9.776 2°38.725 6.1839 -999 -999 12.095742
2008-02-21 12:03:34 51°9.794 2°38.811 6.1831 -999 -999 12.196871
2008-02-21 12:04:34 51°9.813 2°38.896 6.1838 -999 -999 12.129452
2008-02-21 12:05:34 51°9.826 2°38.986 6.1855 -999 -999 12.331708
2008-02-21 12:06:34 51°9.826 2°39.084 6.1861 -999 -999 12.095742
2008-02-21 12:07:34 51°9.818 2°39.183 6.1881 -999 -999 12.095742
2008-02-21 12:08:34 51°9.808 2°39.286 6.1931 -999 -999 11.859777
2008-02-21 12:09:34 51°9.795 2°39.387 6.2014 -999 -999 11.69123
2008-02-21 12:10:34 51°9.783 2°39.489 6.211 -999 -999 11.387845
2008-02-21 12:11:34 51°9.769 2°39.59 6.2339 -999 -999 11.219298
2008-02-21 12:12:34 51°9.757 2°39.692 6.263 -999 -999 10.848494
2008-02-21 12:13:34 51°9.746 2°39.795 6.2911 -999 -999 10.54511
2008-02-21 12:14:34 51°9.733 2°39.893 6.3136 -999 -999 10.410272
2008-02-21 12:15:34 51°9.715 2°39.983 6.3283 -999 -999 10.275435
2008-02-21 12:16:34 51°9.704 2°40.08 6.3295 -999 -999 10.106888
2008-02-21 12:17:34 51°9.689 2°40.165 6.3269 -999 -999 10.140597
2008-02-21 12:18:34 51°9.668 2°40.226 6.3115 -999 -999 10.073178
2008-02-21 12:19:34 51°9.645 2°40.262 6.2773 -999 -999 10.241725
2008-02-21 12:20:34 51°9.639 2°40.304 6.2097 -999 -999 10.477691
2008-02-21 12:21:34 51°9.642 2°40.352 6.1608 -999 -999 11.185589
2008-02-21 12:22:34 51°9.65 2°40.402 6.1545 -999 -999 11.185589
2008-02-21 12:23:34 51°9.662 2°40.456 6.1555 -999 -999 11.354136
2008-02-21 12:24:34 51°9.676 2°40.511 6.1629 -999 -999 11.219298
2008-02-21 12:25:34 51°9.689 2°40.568 6.1613 -999 -999 11.859777
2008-02-21 12:26:34 51°9.694 2°40.683 6.1162 -999 -999 11.994614
2008-02-21 12:27:34 51°9.767 2°40.949 6.1356 -999 -999 13.309281
2008-02-21 12:28:34 51°9.878 2°41.272 6.2621 -999 -999 11.960905
2008-02-21 12:29:34 51°9.99 2°41.599 6.2963 -999 -999 10.679947
2008-02-21 12:30:34 51°10.098 2°41.927 6.2978 -999 -999 10.814785
2008-02-21 12:31:34 51°10.209 2°42.254 6.3021 -999 -999 10.578819
2008-02-21 12:32:34 51°10.319 2°42.583 6.2977 -999 -999 10.342853
2008-02-21 12:33:34 51°10.428 2°42.913 6.2902 -999 -999 10.174306
2008-02-21 12:34:34 51°10.539 2°43.239 6.2811 -999 -999 10.443982
2008-02-21 12:35:34 51°10.649 2°43.566 6.2758 -999 -999 10.5114
2008-02-21 12:36:34 51°10.764 2°43.889 6.28 -999 -999 10.376563
2008-02-21 12:37:34 51°10.88 2°44.21 6.2843 -999 -999 10.477691
2008-02-21 12:38:34 51°10.995 2°44.533 6.2913 -999 -999 10.679947
2008-02-21 12:39:34 51°11.111 2°44.853 6.2716 -999 -999 10.949623
2008-02-21 12:40:34 51°11.231 2°45.177 6.2447 -999 -999 10.410272
2008-02-21 12:41:34 51°11.35 2°45.497 6.1855 -999 -999 10.54511
2008-02-21 12:42:34 51°11.464 2°45.82 6.1629 -999 -999 10.477691
2008-02-21 12:43:34 51°11.584 2°46.144 6.1483 -999 -999 10.342853
2008-02-21 12:44:34 51°11.706 2°46.47 6.1601 -999 -999 10.174306
2008-02-21 12:45:34 51°11.828 2°46.802 6.1673 -999 -999 10.039469
2008-02-21 12:46:34 51°11.949 2°47.134 6.1852 -999 -999 10.241725
2008-02-21 12:47:34 51°12.069 2°47.462 6.1581 -999 -999 10.005759
2008-02-21 12:48:34 51°12.19 2°47.793 6.1388 -999 -999 9.702375
2008-02-21 12:49:34 51°12.315 2°48.12 6.1288 -999 -999 9.466409
2008-02-21 12:50:34 51°12.442 2°48.441 6.108 -999 -999 9.567537
2008-02-21 12:51:34 51°12.568 2°48.764 6.0685 -999 -999 8.960768
2008-02-21 12:52:34 51°12.693 2°49.085 6.0253 -999 -999 8.522546
2008-02-21 12:53:34 51°12.813 2°49.41 6.0095 -999 -999 8.320289
2008-02-21 12:54:34 51°12.939 2°49.737 5.9973 -999 -999 8.084324
2008-02-21 12:55:34 51°13.065 2°50.064 5.9839 -999 -999 7.74723
2008-02-21 12:56:34 51°13.191 2°50.39 5.9746 -999 -999 7.511264
2008-02-21 12:57:34 51°13.318 2°50.719 5.9541 -999 -999 7.477554
2008-02-21 12:58:34 51°13.446 2°51.045 5.9249 -999 -999 7.17417
2008-02-21 12:59:34 51°13.572 2°51.37 5.9049 -999 -999 6.904494
2008-02-21 13:00:34 51°13.701 2°51.698 5.8725 -999 -999 6.634819
2008-02-21 13:01:34 51°13.827 2°52.023 5.846 -999 -999 6.129178
2008-02-21 13:02:34 51°13.953 2°52.349 5.8358 -999 -999 6.02805
2008-02-21 13:03:34 51°14.069 2°52.683 5.8174 -999 -999 5.926922
2008-02-21 13:04:34 51°14.174 2°53.02 5.804 -999 -999 5.690956
2008-02-21 13:05:34 51°14.252 2°53.22 5.7997 -999 -999 5.050477
2008-02-21 13:06:34 51°14.3 2°53.358 5.8 -999 -999 5.050477
2008-02-21 13:07:34 51°14.326 2°53.478 6.1017 -999 -999 5.185315
2008-02-21 13:08:34 51°14.345 2°53.584 6.7548 -999 -999 -0.916087
2008-02-21 13:09:34 51°14.364 2°53.69 6.6469 -999 -999 -1.556565
2008-02-21 13:10:34 51°14.385 2°53.821 6.7665 -999 -999 -1.556565
2008-02-21 13:11:34 51°14.405 2°54.03 6.8649 -999 -999 -1.556565
2008-02-21 13:12:34 51°14.422 2°54.296 6.972 -999 -999 -1.556565
2008-02-21 13:13:34 51°14.433 2°54.547 7.0916 -999 -999 -1.556565
2008-02-21 13:14:34 51°14.403 2°54.869 7.1942 -999 -999 -1.556565
2008-02-21 13:15:34 51°14.303 2°55.16 7.2662 -999 -999 -1.556565
2008-02-21 13:16:34 51°14.176 2°55.364 7.4061 -999 -999 -1.556565
2008-02-21 13:17:34 51°14.087 2°55.439 7.4312 -999 -999 -1.556565
2008-02-21 13:18:34 51°14.02 2°55.494 7.5242 -999 -999 -1.556565
2008-02-21 13:19:34 51°13.95 2°55.549 7.6675 -999 -999 -1.556565
2008-02-21 13:20:38 51°13.863 2°55.611 7.8838 -999 -999 -1.556565
2008-02-21 13:21:38 51°13.79 2°55.67 7.9706 -999 -999 -1.556565
2008-02-21 13:22:38 51°13.733 2°55.731 8.0464 -999 -999 -1.556565
2008-02-21 13:23:38 51°13.685 2°55.797 8.1656 -999 -999 -1.556565
2008-02-21 13:24:38 51°13.659 2°55.875 8.2984 -999 -999 -1.556565
2008-02-21 13:25:38 51°13.659 2°55.936 8.3225 -999 -999 -1.556565
2008-02-21 13:26:38 51°13.66 2°55.959 8.6352 -999 -999 -1.556565
2008-02-21 13:27:38 51°13.661 2°55.961 9.1799 -999 -999 -1.556565
2008-02-21 13:28:38 51°13.662 2°55.959 9.2166 -999 -999 -1.556565